Accueil
METAR-TAF:

METAR-TAF

Aéroports :

Yeovilton, Angleterre

latitude: 51-00N, longitude: 002-38W, altitude: 23 m

Observation

Le bulletin a été fait il y a 1 heure et 2 minutes, à 00:50 UTC
Vent 6 kt de sud-ouest
Température 12°C
Humidité 71%
Pression 1019 hPa
Visibilité 10 km ou plus

METAR: EGDY 170050Z AUTO 23006KT 9999 NCD 12/07 Q1019

Heure: 02:52 (01:52 UTC)

Prévision

Le bulletin a été fait il y a 12 heures et 12 minutes, à 13:40 UTC
Prévision valable du 16 à 15 UTC au 16 à 24 UTC
Vent 20 kt de sud/sud-ouest avec des rafales jusqu'à 30 kt
Visibilité 10 km ou plus
Nuages épars à une hauteur de 3000 ft
Evoluant progressivement
du 16 à 16 UTC au 16 à 19 UTC
Vent 12 kt de sud/sud-ouest

TAF: EGDY 161340Z 1615/1624 21020G30KT 9999 SCT030 BECMG 1616/1619 21012KT

Observations et prévisions météorologiques de plus de 4000 aéroports (messages METAR et TAF).

Les stations disponibles sont représentées par des disques jaunes et rouges sur la carte.

Passer la souris dessus pour voir le nom de la station.

Cliquer dessus pour voir les observations et prévisions météorologiques.

Pour changer de carte: cliquez sur les boutons verts avec une croix noire pour zoomer, sur le bouton vert avec un tiret pour effectuer un zoom arrière, ou sur les flèches vertes pour les cartes adjacentes.


METAR-TAF: